createdAt,value
2022-10-31T00:01:34.133Z,67.88
2022-10-31T00:04:01.187Z,67.66
2022-10-31T00:06:29.233Z,67.70
2022-10-31T00:09:02.098Z,67.59
2022-10-31T00:11:29.760Z,67.83
2022-10-31T00:13:59.685Z,68.24
2022-10-31T00:16:27.771Z,68.42
2022-10-31T00:18:58.664Z,67.39
2022-10-31T00:21:26.300Z,68.10
2022-10-31T00:23:53.596Z,68.41
2022-10-31T00:26:21.700Z,69.12
2022-10-31T00:28:48.941Z,68.82
2022-10-31T00:31:17.840Z,68.07
2022-10-31T00:33:45.247Z,68.75
2022-10-31T00:36:16.746Z,69.12
2022-10-31T00:38:45.189Z,68.90
2022-10-31T00:41:15.624Z,69.12
2022-10-31T00:43:43.982Z,69.15
2022-10-31T00:46:12.295Z,70.56
2022-10-31T00:48:39.536Z,70.58
2022-10-31T00:51:06.664Z,70.18
2022-10-31T00:53:33.695Z,69.75
2022-10-31T00:56:00.989Z,70.67
2022-10-31T00:58:28.275Z,70.35
2022-10-31T01:00:56.292Z,70.94
2022-10-31T01:03:25.988Z,71.01
2022-10-31T01:06:05.426Z,69.28
2022-10-31T01:08:34.531Z,69.61
2022-10-31T01:11:09.220Z,69.66
2022-10-31T01:13:36.960Z,69.42
2022-10-31T01:16:07.075Z,68.94
2022-10-31T01:18:35.042Z,68.76
2022-10-31T01:21:09.603Z,68.28
2022-10-31T01:23:37.366Z,68.35
2022-10-31T01:26:12.655Z,68.40
2022-10-31T01:28:48.201Z,68.23
2022-10-31T01:31:16.071Z,68.39
2022-10-31T01:33:43.683Z,67.89
2022-10-31T01:36:48.212Z,67.27
2022-10-31T01:39:16.532Z,67.67
2022-10-31T01:41:47.736Z,67.84
2022-10-31T01:44:14.565Z,67.83
2022-10-31T01:46:47.213Z,67.56
2022-10-31T01:49:44.530Z,67.34
2022-10-31T01:52:24.365Z,67.44
2022-10-31T01:55:23.158Z,67.19
2022-10-31T01:57:55.941Z,67.41
2022-10-31T02:00:23.525Z,67.49
2022-10-31T02:02:52.670Z,67.46
2022-10-31T02:05:25.440Z,67.28
2022-10-31T02:08:09.741Z,67.46
2022-10-31T02:10:38.098Z,67.95
2022-10-31T02:13:08.336Z,67.88
2022-10-31T02:15:43.969Z,67.39
2022-10-31T02:18:11.198Z,67.82
2022-10-31T02:21:24.652Z,66.78
2022-10-31T02:24:30.939Z,67.07
2022-10-31T02:27:08.435Z,67.18
2022-10-31T02:30:19.457Z,66.93
2022-10-31T02:32:55.288Z,67.68
2022-10-31T02:35:43.677Z,68.68
2022-10-31T02:38:42.987Z,67.64
2022-10-31T02:41:52.159Z,67.48
2022-10-31T02:44:46.681Z,68.19
2022-10-31T02:47:18.049Z,69.60
2022-10-31T02:50:07.613Z,69.55
2022-10-31T02:52:36.529Z,69.58
2022-10-31T02:55:31.087Z,68.13
2022-10-31T02:58:12.586Z,68.74
2022-10-31T03:01:11.314Z,68.66
2022-10-31T03:04:06.609Z,71.60
2022-10-31T03:06:59.980Z,70.65
2022-10-31T03:09:35.000Z,70.49
2022-10-31T03:12:26.098Z,69.46
2022-10-31T03:14:54.628Z,70.11
2022-10-31T03:17:33.134Z,69.63
2022-10-31T03:20:03.801Z,71.04
2022-10-31T03:22:34.044Z,70.28
2022-10-31T03:25:05.243Z,71.19
2022-10-31T03:27:36.715Z,71.98
2022-10-31T03:30:08.627Z,71.25
2022-10-31T03:32:55.273Z,72.62
2022-10-31T03:35:26.822Z,71.57
2022-10-31T03:37:56.076Z,71.65
2022-10-31T03:40:26.933Z,73.16
2022-10-31T03:43:01.970Z,72.54
2022-10-31T03:45:32.005Z,72.49
2022-10-31T03:48:00.719Z,71.95
2022-10-31T03:50:40.238Z,72.61
2022-10-31T03:53:22.366Z,71.58
2022-10-31T03:56:00.233Z,71.73
2022-10-31T03:58:38.112Z,72.12
2022-10-31T04:01:10.945Z,73.52
2022-10-31T04:03:39.700Z,73.33
2022-10-31T04:06:11.850Z,72.45
2022-10-31T04:08:49.448Z,72.89
2022-10-31T04:11:24.251Z,73.85
2022-10-31T04:14:12.536Z,73.54
2022-10-31T04:16:45.325Z,73.57
2022-10-31T04:19:13.872Z,74.21
2022-10-31T04:21:44.187Z,74.00
2022-10-31T04:24:12.066Z,73.37
2022-10-31T04:26:40.045Z,73.22
2022-10-31T04:29:07.757Z,73.79
2022-10-31T04:31:34.721Z,73.74
2022-10-31T04:34:01.695Z,73.44
2022-10-31T04:36:28.711Z,72.62
2022-10-31T04:38:56.401Z,71.98
2022-10-31T04:41:36.425Z,71.92
2022-10-31T04:44:07.397Z,71.55
2022-10-31T04:46:34.412Z,71.61
2022-10-31T04:49:03.874Z,71.40
2022-10-31T04:51:30.937Z,71.71
2022-10-31T04:53:58.020Z,71.50
2022-10-31T04:56:43.443Z,71.28
2022-10-31T04:59:15.696Z,71.26
2022-10-31T05:01:52.703Z,70.79
2022-10-31T05:04:26.382Z,70.72
2022-10-31T05:06:53.458Z,70.57
2022-10-31T05:09:20.485Z,70.21
2022-10-31T05:11:47.504Z,70.40
2022-10-31T05:14:48.614Z,70.42
2022-10-31T05:17:34.373Z,70.13
2022-10-31T05:20:25.969Z,70.10
2022-10-31T05:23:11.670Z,70.18
2022-10-31T05:25:41.874Z,70.03
2022-10-31T05:28:09.191Z,70.25
2022-10-31T05:30:36.486Z,70.03
2022-10-31T05:33:05.163Z,69.67
2022-10-31T05:35:54.720Z,69.93
2022-10-31T05:38:40.144Z,70.00
2022-10-31T05:41:14.188Z,69.59
2022-10-31T05:43:46.181Z,70.05
2022-10-31T05:46:13.978Z,69.34
2022-10-31T05:49:02.881Z,69.67
2022-10-31T05:52:01.947Z,69.17
2022-10-31T05:54:38.709Z,69.81
2022-10-31T05:57:05.728Z,69.42
2022-10-31T05:59:33.082Z,69.77
2022-10-31T06:02:01.462Z,69.52
2022-10-31T06:04:49.141Z,69.54
2022-10-31T06:07:16.452Z,69.25
2022-10-31T06:09:43.909Z,69.27
2022-10-31T06:12:11.346Z,69.63
2022-10-31T06:15:14.043Z,69.33
2022-10-31T06:17:43.123Z,69.62
2022-10-31T06:20:10.759Z,69.73
2022-10-31T06:22:47.631Z,69.23
2022-10-31T06:25:14.724Z,69.49
2022-10-31T06:27:46.226Z,69.42
2022-10-31T06:30:15.382Z,69.41
2022-10-31T06:32:43.410Z,69.58
2022-10-31T06:35:10.964Z,69.44
2022-10-31T06:37:38.474Z,69.43
2022-10-31T06:40:28.432Z,69.79
2022-10-31T06:43:17.073Z,69.62
2022-10-31T06:45:44.686Z,69.70
2022-10-31T06:48:42.942Z,69.82
2022-10-31T06:51:19.657Z,69.39
2022-10-31T06:53:46.875Z,69.77
2022-10-31T06:56:16.657Z,69.67
2022-10-31T06:58:48.764Z,70.22
2022-10-31T07:01:18.118Z,70.04
2022-10-31T07:03:45.187Z,70.28
2022-10-31T07:06:12.262Z,70.10
2022-10-31T07:08:39.909Z,70.46
2022-10-31T07:11:07.911Z,70.51
2022-10-31T07:13:34.918Z,70.61
2022-10-31T07:16:07.655Z,70.75
2022-10-31T07:18:36.368Z,70.55
2022-10-31T07:21:04.264Z,70.91
2022-10-31T07:23:33.206Z,70.35
2022-10-31T07:26:20.178Z,70.84
2022-10-31T07:28:49.066Z,70.98
2022-10-31T07:31:19.047Z,71.01
2022-10-31T07:33:46.234Z,70.78
2022-10-31T07:36:28.303Z,71.31
2022-10-31T07:39:00.350Z,70.95
2022-10-31T07:41:27.371Z,71.27
2022-10-31T07:43:54.807Z,70.95
2022-10-31T07:46:41.743Z,71.68
2022-10-31T07:49:27.441Z,70.93
2022-10-31T07:52:13.157Z,71.49
2022-10-31T07:54:59.045Z,71.45
2022-10-31T07:57:28.455Z,71.25
2022-10-31T07:59:57.774Z,71.60
2022-10-31T08:02:25.232Z,71.82
2022-10-31T08:05:27.505Z,71.90
2022-10-31T08:08:20.604Z,72.03
2022-10-31T08:10:48.474Z,71.86
2022-10-31T08:13:15.721Z,71.64
2022-10-31T08:15:50.927Z,71.70
2022-10-31T08:18:18.122Z,71.79
2022-10-31T08:20:45.600Z,72.08
2022-10-31T08:23:14.179Z,71.97
2022-10-31T08:25:43.332Z,71.85
2022-10-31T08:28:12.568Z,72.07
2022-10-31T08:30:42.679Z,71.64
2022-10-31T08:33:28.511Z,71.84
2022-10-31T08:36:18.120Z,72.51
2022-10-31T08:39:06.826Z,72.19
2022-10-31T08:41:33.809Z,72.51
2022-10-31T08:44:01.717Z,72.59
2022-10-31T08:46:28.880Z,72.98
2022-10-31T08:48:55.930Z,72.16
2022-10-31T08:51:23.784Z,72.48
2022-10-31T08:53:53.650Z,72.36
2022-10-31T08:56:23.357Z,72.54
2022-10-31T08:58:51.979Z,72.64
2022-10-31T09:01:23.782Z,72.52
2022-10-31T09:03:50.866Z,72.25
2022-10-31T09:06:17.960Z,72.53
2022-10-31T09:08:48.518Z,73.08
2022-10-31T09:11:15.515Z,73.15
2022-10-31T09:14:05.173Z,73.10
2022-10-31T09:16:52.204Z,72.95
2022-10-31T09:19:23.375Z,73.63
2022-10-31T09:21:55.006Z,73.10
2022-10-31T09:24:23.005Z,73.32
2022-10-31T09:26:50.103Z,73.20
2022-10-31T09:29:27.116Z,73.46
2022-10-31T09:31:58.517Z,73.72
2022-10-31T09:34:28.220Z,73.73
2022-10-31T09:37:04.070Z,73.73
2022-10-31T09:39:31.082Z,73.87
2022-10-31T09:42:22.969Z,73.42
2022-10-31T09:45:20.164Z,73.61
2022-10-31T09:48:04.976Z,73.83
2022-10-31T09:51:06.579Z,73.59
2022-10-31T09:54:16.309Z,73.33
2022-10-31T09:56:44.987Z,73.54
2022-10-31T09:59:35.834Z,73.95
2022-10-31T10:02:33.124Z,73.61
2022-10-31T10:05:05.296Z,73.72
2022-10-31T10:08:24.556Z,73.50
2022-10-31T10:12:03.730Z,73.71
2022-10-31T10:15:15.112Z,73.66
2022-10-31T10:18:10.201Z,73.62
2022-10-31T10:20:43.986Z,73.79
2022-10-31T10:23:47.275Z,73.69
2022-10-31T10:26:19.810Z,73.90
2022-10-31T10:29:03.538Z,74.07
2022-10-31T10:31:39.874Z,73.80
2022-10-31T10:34:25.395Z,73.77
2022-10-31T10:37:05.506Z,73.87
2022-10-31T10:39:39.123Z,74.04
2022-10-31T10:42:33.591Z,73.65
2022-10-31T10:54:42.063Z,73.69
2022-10-31T10:57:34.178Z,73.63
2022-10-31T11:00:16.856Z,73.64
2022-10-31T11:02:46.511Z,73.87
2022-10-31T11:05:36.423Z,74.04
2022-10-31T11:08:05.406Z,74.13
2022-10-31T11:10:34.142Z,73.98
2022-10-31T11:13:06.838Z,74.07
2022-10-31T11:15:51.309Z,74.00
2022-10-31T11:21:01.328Z,74.00
2022-10-31T11:23:30.009Z,74.15
2022-10-31T11:26:19.234Z,73.91
2022-10-31T11:29:00.566Z,74.20
2022-10-31T11:31:30.461Z,73.89
2022-10-31T11:34:14.709Z,74.03
2022-10-31T11:36:45.291Z,74.14
2022-10-31T11:39:22.852Z,74.29
2022-10-31T11:41:53.036Z,74.26
2022-10-31T11:44:29.885Z,74.04
2022-10-31T11:47:01.124Z,74.28
2022-10-31T11:49:39.755Z,74.13
2022-10-31T11:52:22.419Z,74.00
2022-10-31T11:55:11.257Z,73.94
2022-10-31T11:57:50.515Z,73.98
2022-10-31T12:00:30.528Z,74.21
2022-10-31T12:03:24.525Z,74.11
2022-10-31T12:06:24.653Z,74.19
2022-10-31T12:08:51.638Z,73.98
2022-10-31T12:11:49.817Z,74.72
2022-10-31T12:14:34.792Z,74.25
2022-10-31T12:17:39.143Z,74.37
2022-10-31T12:20:59.364Z,74.28
2022-10-31T12:24:16.553Z,74.21
2022-10-31T12:27:29.557Z,73.95
2022-10-31T12:30:27.857Z,73.83
2022-10-31T12:33:18.810Z,73.81
2022-10-31T12:36:32.606Z,74.06
2022-10-31T12:39:17.488Z,73.87
2022-10-31T12:42:11.282Z,73.82
2022-10-31T12:45:13.877Z,73.67
2022-10-31T12:47:40.721Z,73.86
2022-10-31T12:50:25.642Z,73.79
2022-10-31T12:53:26.725Z,73.72
2022-10-31T12:56:33.031Z,73.73
2022-10-31T12:59:22.529Z,73.55
2022-10-31T13:02:19.898Z,73.60
2022-10-31T13:05:07.080Z,73.81
2022-10-31T13:07:45.028Z,73.96
2022-10-31T13:10:18.219Z,73.87
2022-10-31T13:12:47.758Z,73.81
2022-10-31T13:15:21.649Z,74.04
2022-10-31T13:17:54.659Z,73.89
2022-10-31T13:20:44.971Z,73.80
2022-10-31T13:26:36.744Z,73.60
2022-10-31T13:29:36.414Z,73.43
2022-10-31T13:32:08.119Z,73.55
2022-10-31T13:34:47.935Z,73.55
2022-10-31T13:37:55.068Z,73.56
2022-10-31T13:40:46.595Z,73.50
2022-10-31T13:43:57.373Z,73.71
2022-10-31T13:46:40.848Z,73.59
2022-10-31T13:49:29.793Z,74.18
2022-10-31T13:52:27.015Z,74.34
2022-10-31T13:54:58.029Z,74.24
2022-10-31T13:57:42.630Z,74.95
2022-10-31T14:00:21.930Z,74.82
2022-10-31T14:02:58.367Z,74.79
2022-10-31T14:05:34.152Z,74.96
2022-10-31T14:08:04.463Z,74.85
2022-10-31T14:10:46.444Z,74.85
2022-10-31T14:13:23.908Z,75.03
2022-10-31T14:15:59.296Z,74.77
2022-10-31T14:18:33.364Z,74.54
2022-10-31T14:21:00.326Z,74.41
2022-10-31T14:23:45.492Z,73.36
2022-10-31T14:26:31.981Z,73.02
2022-10-31T14:29:00.382Z,73.87
2022-10-31T14:31:43.609Z,73.91
2022-10-31T14:34:23.680Z,73.75
2022-10-31T14:37:11.521Z,74.25
2022-10-31T14:40:00.327Z,74.15
2022-10-31T14:42:57.835Z,74.08
2022-10-31T14:45:46.463Z,73.78
2022-10-31T14:49:00.291Z,73.76
2022-10-31T14:51:39.511Z,73.32
2022-10-31T14:54:11.609Z,72.97
2022-10-31T14:56:50.524Z,73.28
2022-10-31T14:59:30.286Z,73.09
2022-10-31T15:02:18.010Z,73.00
2022-10-31T15:04:47.130Z,72.69
2022-10-31T15:07:25.103Z,72.67
2022-10-31T15:10:06.847Z,72.87
2022-10-31T15:12:39.603Z,72.72
2022-10-31T15:15:24.201Z,72.81
2022-10-31T15:17:59.693Z,72.67
2022-10-31T15:20:31.426Z,72.66
2022-10-31T15:22:59.886Z,72.24
2022-10-31T15:25:35.275Z,72.40
2022-10-31T15:28:02.970Z,72.36
2022-10-31T15:30:30.995Z,72.36
2022-10-31T15:32:59.196Z,71.91
2022-10-31T15:35:31.604Z,72.32
2022-10-31T15:38:00.518Z,72.16
2022-10-31T15:40:29.039Z,71.94
2022-10-31T15:43:00.325Z,72.01
2022-10-31T15:45:30.736Z,71.79
2022-10-31T15:48:00.368Z,71.95
2022-10-31T15:50:37.405Z,71.56
2022-10-31T15:53:07.147Z,71.64
2022-10-31T15:55:46.064Z,71.79
2022-10-31T15:58:16.864Z,71.85
2022-10-31T16:00:44.418Z,71.74
2022-10-31T16:03:20.509Z,71.70
2022-10-31T16:05:55.724Z,71.76
2022-10-31T16:08:36.386Z,72.58
2022-10-31T16:11:13.496Z,72.54
2022-10-31T16:14:03.225Z,72.81
2022-10-31T16:16:35.560Z,72.96
2022-10-31T16:19:06.290Z,72.88
2022-10-31T16:21:40.685Z,73.48
2022-10-31T16:24:28.709Z,72.58
2022-10-31T16:27:18.223Z,72.98
2022-10-31T16:29:48.158Z,72.75
2022-10-31T16:32:36.674Z,72.48
2022-10-31T16:35:10.103Z,72.86
2022-10-31T16:37:44.210Z,73.16
2022-10-31T16:40:16.123Z,73.42
2022-10-31T16:42:44.630Z,73.94
2022-10-31T16:45:21.153Z,73.98
2022-10-31T16:47:49.326Z,73.23
2022-10-31T16:50:25.130Z,73.32
2022-10-31T16:53:12.323Z,73.43
2022-10-31T16:55:47.119Z,73.22
2022-10-31T16:58:25.261Z,73.21
2022-10-31T17:00:53.434Z,73.02
2022-10-31T17:03:20.880Z,72.71
2022-10-31T17:05:48.257Z,72.57
2022-10-31T17:08:15.587Z,72.76
2022-10-31T17:10:45.473Z,72.72
2022-10-31T17:13:20.260Z,73.02
2022-10-31T17:15:51.363Z,74.02
2022-10-31T17:18:22.874Z,74.08
2022-10-31T17:20:59.812Z,74.76
2022-10-31T17:23:28.561Z,73.76
2022-10-31T17:25:56.695Z,75.20
2022-10-31T17:28:23.752Z,74.73
2022-10-31T17:30:50.730Z,74.49
2022-10-31T17:33:18.012Z,75.04
2022-10-31T17:35:45.456Z,75.21
2022-10-31T17:38:12.594Z,74.89
2022-10-31T17:40:43.761Z,74.89
2022-10-31T17:43:12.049Z,75.55
2022-10-31T17:45:41.149Z,74.88
2022-10-31T17:48:12.078Z,75.79
2022-10-31T17:50:39.095Z,76.14
2022-10-31T17:53:06.118Z,75.44
2022-10-31T17:55:36.155Z,75.66
2022-10-31T17:58:05.213Z,76.62
2022-10-31T18:00:32.919Z,75.85
2022-10-31T18:03:01.453Z,76.86
2022-10-31T18:05:28.729Z,76.63
2022-10-31T18:07:56.524Z,76.30
2022-10-31T18:10:26.591Z,77.16
2022-10-31T18:12:53.634Z,75.68
2022-10-31T18:15:20.697Z,76.19
2022-10-31T18:17:47.750Z,75.90
2022-10-31T18:20:14.706Z,75.53
2022-10-31T18:22:41.936Z,75.12
2022-10-31T18:25:09.272Z,75.14
2022-10-31T18:27:36.228Z,75.06
2022-10-31T18:30:04.028Z,75.34
2022-10-31T18:32:31.039Z,75.54
2022-10-31T18:34:58.086Z,75.02
2022-10-31T18:37:25.024Z,74.55
2022-10-31T18:39:51.987Z,74.53
2022-10-31T18:42:18.944Z,74.74
2022-10-31T18:44:45.921Z,74.83
2022-10-31T18:47:12.956Z,74.98
2022-10-31T18:49:40.013Z,74.67
2022-10-31T18:52:07.045Z,74.61
2022-10-31T18:54:33.991Z,73.90
2022-10-31T18:57:00.964Z,73.94
2022-10-31T18:59:27.917Z,74.62
2022-10-31T19:01:55.004Z,74.57
2022-10-31T19:04:22.320Z,75.15
2022-10-31T19:06:49.302Z,73.82
2022-10-31T19:09:16.292Z,73.88
2022-10-31T19:11:43.328Z,73.91
2022-10-31T19:14:12.652Z,74.46
2022-10-31T19:16:39.706Z,74.35
2022-10-31T19:19:06.801Z,75.49
2022-10-31T19:21:33.842Z,74.49
2022-10-31T19:24:02.138Z,74.83
2022-10-31T19:26:29.397Z,74.21
2022-10-31T19:28:56.992Z,74.28
2022-10-31T19:31:24.533Z,74.18
2022-10-31T19:33:51.610Z,74.53
2022-10-31T19:36:20.489Z,74.68
2022-10-31T19:38:51.335Z,73.75
2022-10-31T19:41:26.007Z,73.80
2022-10-31T19:43:54.147Z,73.78
2022-10-31T19:46:40.410Z,74.03
2022-10-31T19:49:11.747Z,73.64
2022-10-31T19:51:38.805Z,73.62
2022-10-31T19:54:06.194Z,73.71
2022-10-31T19:56:33.229Z,73.79
2022-10-31T19:59:00.184Z,73.65
2022-10-31T20:01:27.472Z,73.50
2022-10-31T20:03:54.503Z,73.33
2022-10-31T20:06:29.449Z,73.75
2022-10-31T20:08:56.670Z,73.53
2022-10-31T20:11:25.809Z,74.15
2022-10-31T20:13:55.970Z,73.77
2022-10-31T20:16:23.909Z,73.44
2022-10-31T20:18:51.194Z,73.56
2022-10-31T20:21:22.832Z,73.29
2022-10-31T20:23:49.861Z,73.33
2022-10-31T20:26:19.402Z,73.14
2022-10-31T20:28:46.774Z,73.15
2022-10-31T20:31:22.539Z,73.14
2022-10-31T20:33:50.137Z,73.23
2022-10-31T20:36:21.049Z,73.07
2022-10-31T20:38:48.520Z,73.51
2022-10-31T20:41:17.143Z,73.19
2022-10-31T20:43:45.097Z,73.28
2022-10-31T20:46:21.622Z,72.99
2022-10-31T20:48:48.974Z,73.65
2022-10-31T20:51:21.488Z,73.16
2022-10-31T20:53:50.901Z,73.50
2022-10-31T20:56:20.866Z,73.03
2022-10-31T20:58:48.681Z,73.51
2022-10-31T21:01:25.319Z,73.32
2022-10-31T21:03:52.943Z,74.12
2022-10-31T21:06:22.947Z,74.18
2022-10-31T21:08:50.920Z,73.27
2022-10-31T21:11:22.374Z,74.25
2022-10-31T21:13:50.391Z,74.98
2022-10-31T21:16:27.370Z,74.52
2022-10-31T21:18:55.159Z,75.59
2022-10-31T21:21:32.161Z,75.15
2022-10-31T21:24:12.164Z,77.50
2022-10-31T21:26:42.678Z,76.27
2022-10-31T21:29:11.853Z,77.39
2022-10-31T21:31:40.177Z,77.92
2022-10-31T21:34:07.825Z,77.36
2022-10-31T21:36:35.445Z,77.08
2022-10-31T21:39:03.706Z,79.13
2022-10-31T21:41:30.809Z,77.42
2022-10-31T21:43:58.323Z,78.85
2022-10-31T21:46:30.080Z,78.17
2022-10-31T21:48:57.665Z,77.53
2022-10-31T21:51:28.164Z,78.29
2022-10-31T21:54:14.460Z,78.38
2022-10-31T21:56:42.360Z,78.58
2022-10-31T21:59:09.359Z,78.98
2022-10-31T22:01:37.208Z,79.01
2022-10-31T22:04:05.562Z,80.57
2022-10-31T22:06:33.766Z,80.01
2022-10-31T22:09:03.857Z,78.77
2022-10-31T22:11:31.016Z,80.17
2022-10-31T22:14:02.283Z,78.85
2022-10-31T22:16:30.704Z,78.98
2022-10-31T22:18:59.882Z,78.07
2022-10-31T22:21:28.197Z,77.84
2022-10-31T22:24:03.210Z,77.85
2022-10-31T22:26:32.493Z,78.33
2022-10-31T22:29:02.152Z,78.64
2022-10-31T22:31:31.129Z,78.63
2022-10-31T22:33:58.545Z,80.16
2022-10-31T22:36:29.404Z,80.17
2022-10-31T22:38:56.703Z,81.99
2022-10-31T22:41:28.388Z,83.23
2022-10-31T22:43:56.560Z,81.95
2022-10-31T22:46:30.500Z,82.09
2022-10-31T22:49:00.905Z,81.91
2022-10-31T22:51:35.456Z,83.04
2022-10-31T22:54:03.143Z,83.04
2022-10-31T22:56:33.344Z,83.21
2022-10-31T22:59:01.805Z,83.18
2022-10-31T23:01:33.368Z,82.15
2022-10-31T23:04:01.607Z,82.08
2022-10-31T23:06:31.659Z,82.01
2022-10-31T23:09:01.402Z,82.46
2022-10-31T23:11:39.047Z,81.85
2022-10-31T23:14:19.437Z,81.37
2022-10-31T23:16:55.371Z,82.46
2022-10-31T23:19:28.852Z,84.31
2022-10-31T23:22:00.919Z,83.17
2022-10-31T23:24:39.364Z,82.75
2022-10-31T23:27:16.822Z,83.20
2022-10-31T23:29:53.244Z,83.21
2022-10-31T23:32:25.064Z,83.28
2022-10-31T23:34:56.651Z,83.82
2022-10-31T23:37:30.209Z,82.57
2022-10-31T23:39:57.777Z,83.02
2022-10-31T23:42:26.004Z,82.60
2022-10-31T23:44:53.198Z,82.01
2022-10-31T23:47:21.009Z,82.28
2022-10-31T23:49:48.387Z,81.90
2022-10-31T23:52:16.079Z,81.89
2022-10-31T23:54:43.557Z,81.78
2022-10-31T23:57:15.188Z,81.72
2022-10-31T23:59:42.595Z,81.38
